createdAt,value
2018-06-08T00:01:08.896Z,20.48
2018-06-08T00:03:38.350Z,20.47
2018-06-08T00:06:07.586Z,20.47
2018-06-08T00:08:36.772Z,20.46
2018-06-08T00:11:06.665Z,20.52
2018-06-08T00:13:37.392Z,20.49
2018-06-08T00:16:06.784Z,20.50
2018-06-08T00:18:36.545Z,20.49
2018-06-08T00:21:06.049Z,20.49
2018-06-08T00:23:35.189Z,20.54
2018-06-08T00:26:04.416Z,20.49
2018-06-08T00:28:33.951Z,20.40
2018-06-08T00:31:03.120Z,20.39
2018-06-08T00:33:32.323Z,20.33
2018-06-08T00:36:01.801Z,20.42
2018-06-08T00:38:31.152Z,20.34
2018-06-08T00:41:00.143Z,20.27
2018-06-08T00:43:29.648Z,20.30
2018-06-08T00:45:58.796Z,20.29
2018-06-08T00:48:27.855Z,20.28
2018-06-08T00:50:57.304Z,20.19
2018-06-08T00:53:26.542Z,20.19
2018-06-08T00:55:55.840Z,20.21
2018-06-08T00:58:25.040Z,20.23
2018-06-08T01:00:54.140Z,20.18
2018-06-08T01:03:23.549Z,20.18
2018-06-08T01:05:52.737Z,20.16
2018-06-08T01:08:21.892Z,20.18
2018-06-08T01:10:51.122Z,20.09
2018-06-08T01:13:20.596Z,20.07
2018-06-08T01:15:49.960Z,20.00
2018-06-08T01:18:19.096Z,19.93
2018-06-08T01:20:48.908Z,19.90
2018-06-08T01:23:18.243Z,19.87
2018-06-08T01:25:47.396Z,19.87
2018-06-08T01:28:17.924Z,19.83
2018-06-08T01:30:47.144Z,19.82
2018-06-08T01:33:16.373Z,19.77
2018-06-08T01:35:45.540Z,19.75
2018-06-08T01:38:14.741Z,19.68
2018-06-08T01:40:43.951Z,19.66
2018-06-08T01:43:13.161Z,19.58
2018-06-08T01:45:42.337Z,19.55
2018-06-08T01:48:11.508Z,19.54
2018-06-08T01:50:41.274Z,19.54
2018-06-08T01:53:10.668Z,19.50
2018-06-08T01:55:39.865Z,19.50
2018-06-08T01:58:09.301Z,19.48
2018-06-08T02:00:38.561Z,19.46
2018-06-08T02:03:07.665Z,19.41
2018-06-08T02:05:36.956Z,19.40
2018-06-08T02:08:06.162Z,19.38
2018-06-08T02:10:35.333Z,19.32
2018-06-08T02:13:04.521Z,19.23
2018-06-08T02:15:33.616Z,19.19
2018-06-08T02:18:03.869Z,19.08
2018-06-08T02:20:33.380Z,19.04
2018-06-08T02:23:02.526Z,19.03
2018-06-08T02:25:31.752Z,19.03
2018-06-08T02:28:00.974Z,18.98
2018-06-08T02:30:30.250Z,19.00
2018-06-08T02:32:59.518Z,18.99
2018-06-08T02:35:29.136Z,18.93
2018-06-08T02:37:58.348Z,18.98
2018-06-08T02:40:27.540Z,18.95
2018-06-08T02:42:56.996Z,19.06
2018-06-08T02:45:26.070Z,19.06
2018-06-08T02:47:55.252Z,19.03
2018-06-08T02:50:24.652Z,18.96
2018-06-08T02:52:53.928Z,18.96
2018-06-08T02:55:23.145Z,19.01
2018-06-08T02:57:52.364Z,19.03
2018-06-08T03:00:21.729Z,19.04
2018-06-08T03:02:51.864Z,19.07
2018-06-08T03:05:21.508Z,19.15
2018-06-08T03:07:50.796Z,19.20
2018-06-08T03:10:19.949Z,19.26
2018-06-08T03:12:49.072Z,19.29
2018-06-08T03:15:18.293Z,19.26
2018-06-08T03:17:47.496Z,19.28
2018-06-08T03:20:17.376Z,19.27
2018-06-08T03:22:46.577Z,19.28
2018-06-08T03:25:15.800Z,19.35
2018-06-08T03:27:45.006Z,19.29
2018-06-08T03:30:14.150Z,19.21
2018-06-08T03:32:43.496Z,19.08
2018-06-08T03:35:12.900Z,19.03
2018-06-08T03:37:42.061Z,19.07
2018-06-08T03:40:11.296Z,19.06
2018-06-08T03:42:40.801Z,19.11
2018-06-08T03:45:09.960Z,19.10
2018-06-08T03:47:39.169Z,19.17
2018-06-08T03:50:08.309Z,19.23
2018-06-08T03:52:37.404Z,19.25
2018-06-08T03:55:06.648Z,19.34
2018-06-08T03:57:36.256Z,19.41
2018-06-08T04:00:05.696Z,19.45
2018-06-08T04:02:35.776Z,19.48
2018-06-08T04:05:05.592Z,19.46
2018-06-08T04:07:34.800Z,19.44
2018-06-08T04:10:04.292Z,19.39
2018-06-08T04:12:33.480Z,19.43
2018-06-08T04:15:02.728Z,19.51
2018-06-08T04:17:31.896Z,19.60
2018-06-08T04:20:01.076Z,19.64
2018-06-08T04:22:31.036Z,19.66
2018-06-08T04:25:00.236Z,19.75
2018-06-08T04:27:29.403Z,19.78
2018-06-08T04:29:58.899Z,19.76
2018-06-08T04:32:28.115Z,19.79
2018-06-08T04:34:57.305Z,19.88
2018-06-08T04:37:26.800Z,19.96
2018-06-08T04:39:55.988Z,19.99
2018-06-08T04:42:25.232Z,19.99
2018-06-08T04:44:54.404Z,20.00
2018-06-08T04:47:24.572Z,20.07
2018-06-08T04:49:53.816Z,20.17
2018-06-08T04:52:23.008Z,20.32
2018-06-08T04:54:52.720Z,20.43
2018-06-08T04:57:22.980Z,20.50
2018-06-08T04:59:53.485Z,20.53
2018-06-08T05:02:24.347Z,20.58
2018-06-08T05:04:53.516Z,20.63
2018-06-08T05:07:23.520Z,20.58
2018-06-08T05:09:52.712Z,20.67
2018-06-08T05:12:22.429Z,20.76
2018-06-08T05:14:52.752Z,20.85
2018-06-08T05:17:21.864Z,20.92
2018-06-08T05:19:51.040Z,21.00
2018-06-08T05:22:21.101Z,21.12
2018-06-08T05:24:50.252Z,21.17
2018-06-08T05:27:20.484Z,21.17
2018-06-08T05:29:50.328Z,21.13
2018-06-08T05:32:19.509Z,21.08
2018-06-08T05:34:49.422Z,21.11
2018-06-08T05:37:18.600Z,21.09
2018-06-08T05:39:49.528Z,21.22
2018-06-08T05:42:19.676Z,21.31
2018-06-08T05:44:50.400Z,21.40
2018-06-08T05:47:20.965Z,21.49
2018-06-08T05:49:51.700Z,21.53
2018-06-08T05:52:22.220Z,21.58
2018-06-08T05:54:52.104Z,21.73
2018-06-08T05:57:22.120Z,21.85
2018-06-08T05:59:52.344Z,21.99
2018-06-08T06:02:22.656Z,22.17
2018-06-08T06:04:52.992Z,22.27
2018-06-08T06:07:23.213Z,22.25
2018-06-08T06:09:53.232Z,22.40
2018-06-08T06:12:23.237Z,22.45
2018-06-08T06:14:52.976Z,22.48
2018-06-08T06:17:23.077Z,22.48
2018-06-08T06:19:52.272Z,22.55
2018-06-08T06:22:22.028Z,22.54
2018-06-08T06:24:52.116Z,22.54
2018-06-08T06:27:22.057Z,22.55
2018-06-08T06:29:51.989Z,22.55
2018-06-08T06:32:21.863Z,22.51
2018-06-08T06:34:51.985Z,22.51
2018-06-08T06:37:22.122Z,22.53
2018-06-08T06:39:52.004Z,22.49
2018-06-08T06:42:22.057Z,22.48
2018-06-08T06:44:52.994Z,22.44
2018-06-08T06:47:23.116Z,22.44
2018-06-08T06:49:52.208Z,22.49
2018-06-08T06:52:22.128Z,22.55
2018-06-08T06:54:52.148Z,22.57
2018-06-08T06:57:22.261Z,22.70
2018-06-08T06:59:52.388Z,22.84
2018-06-08T07:02:21.990Z,22.98
2018-06-08T07:04:51.080Z,23.09
2018-06-08T07:07:20.565Z,23.16
2018-06-08T07:09:51.581Z,23.25
2018-06-08T07:12:21.837Z,23.06
2018-06-08T07:14:52.671Z,23.06
2018-06-08T07:17:22.552Z,23.07
2018-06-08T07:19:51.781Z,23.01
2018-06-08T07:22:22.384Z,23.25
2018-06-08T07:24:52.452Z,23.24
2018-06-08T07:27:22.764Z,23.41
2018-06-08T07:29:53.814Z,23.26
2018-06-08T07:32:24.524Z,23.05
2018-06-08T07:34:54.646Z,23.17
2018-06-08T07:37:24.862Z,23.17
2018-06-08T07:39:54.916Z,23.18
2018-06-08T07:42:25.320Z,23.09
2018-06-08T07:44:55.684Z,23.66
2018-06-08T07:47:25.894Z,24.57
2018-06-08T07:49:57.124Z,25.33
2018-06-08T07:52:27.719Z,26.10
2018-06-08T07:54:59.210Z,27.09
2018-06-08T07:57:29.639Z,27.10
2018-06-08T08:00:00.171Z,26.96
2018-06-08T08:02:29.980Z,26.85
2018-06-08T08:05:00.165Z,26.87
2018-06-08T08:07:33.165Z,25.66
2018-06-08T08:10:04.336Z,25.83
2018-06-08T08:12:34.599Z,26.55
2018-06-08T08:15:05.784Z,26.89
2018-06-08T08:17:37.454Z,26.88
2018-06-08T08:20:07.961Z,27.13
2018-06-08T08:22:38.813Z,27.72
2018-06-08T08:25:09.708Z,28.29
2018-06-08T08:27:40.298Z,27.38
2018-06-08T08:30:10.352Z,28.02
2018-06-08T08:32:41.008Z,28.97
2018-06-08T08:35:11.940Z,29.92
2018-06-08T08:37:42.596Z,31.39
2018-06-08T08:40:12.810Z,32.59
2018-06-08T08:42:42.684Z,32.53
2018-06-08T08:45:11.928Z,32.39
2018-06-08T08:47:42.360Z,30.15
2018-06-08T08:50:12.376Z,29.87
2018-06-08T08:52:42.599Z,28.20
2018-06-08T08:55:12.620Z,28.65
2018-06-08T08:57:42.840Z,29.47
2018-06-08T09:00:13.349Z,29.86
2018-06-08T09:02:43.380Z,29.64
2018-06-08T09:05:13.429Z,29.18
2018-06-08T09:07:43.439Z,29.23
2018-06-08T09:10:13.956Z,29.43
2018-06-08T09:12:43.760Z,29.50
2018-06-08T09:15:13.115Z,28.53
2018-06-08T09:17:43.363Z,29.69
2018-06-08T09:20:14.069Z,31.34
2018-06-08T09:22:44.396Z,32.85
2018-06-08T09:25:15.979Z,34.54
2018-06-08T09:27:46.176Z,35.73
2018-06-08T09:30:16.228Z,36.11
2018-06-08T09:32:48.432Z,36.09
2018-06-08T09:35:18.885Z,35.17
2018-06-08T09:37:49.387Z,36.25
2018-06-08T09:40:19.547Z,37.41
2018-06-08T09:42:49.614Z,37.97
2018-06-08T09:45:20.030Z,37.77
2018-06-08T09:47:52.101Z,37.62
2018-06-08T09:50:23.036Z,34.99
2018-06-08T09:52:53.381Z,34.04
2018-06-08T09:55:23.588Z,35.40
2018-06-08T09:57:53.035Z,36.60
2018-06-08T10:00:29.308Z,38.39
2018-06-08T10:02:59.053Z,39.27
2018-06-08T10:05:28.863Z,39.24
2018-06-08T10:07:59.852Z,38.61
2018-06-08T10:10:29.604Z,38.33
2018-06-08T10:12:59.636Z,38.25
2018-06-08T10:15:29.663Z,37.16
2018-06-08T10:17:59.965Z,35.74
2018-06-08T10:20:31.520Z,35.51
2018-06-08T10:23:01.596Z,35.08
2018-06-08T10:25:31.570Z,34.25
2018-06-08T10:28:01.688Z,35.37
2018-06-08T10:30:32.173Z,34.26
2018-06-08T10:33:01.996Z,34.27
2018-06-08T10:35:31.198Z,33.25
2018-06-08T10:38:01.549Z,32.80
2018-06-08T10:40:31.716Z,31.27
2018-06-08T10:43:00.919Z,30.12
2018-06-08T10:45:30.952Z,31.02
2018-06-08T10:48:02.022Z,31.62
2018-06-08T10:50:32.368Z,30.13
2018-06-08T10:53:02.331Z,30.96
2018-06-08T10:55:32.360Z,31.82
2018-06-08T10:58:03.834Z,33.97
2018-06-08T11:00:33.733Z,32.93
2018-06-08T11:03:03.664Z,33.81
2018-06-08T11:05:33.675Z,35.54
2018-06-08T11:08:03.900Z,36.36
2018-06-08T11:10:34.013Z,37.14
2018-06-08T11:13:04.355Z,37.13
2018-06-08T11:15:34.230Z,36.82
2018-06-08T11:18:04.800Z,35.34
2018-06-08T11:20:35.804Z,34.67
2018-06-08T11:23:05.921Z,35.20
2018-06-08T11:25:36.066Z,35.44
2018-06-08T11:28:05.271Z,34.52
2018-06-08T11:30:35.294Z,33.63
2018-06-08T11:33:05.304Z,33.42
2018-06-08T11:35:34.473Z,33.66
2018-06-08T11:38:03.702Z,33.59
2018-06-08T11:40:33.836Z,33.23
2018-06-08T11:43:02.979Z,32.38
2018-06-08T11:45:32.153Z,30.11
2018-06-08T11:48:02.120Z,29.80
2018-06-08T11:50:32.409Z,30.28
2018-06-08T11:53:02.638Z,30.78
2018-06-08T11:55:31.857Z,31.49
2018-06-08T11:58:02.256Z,32.84
2018-06-08T12:00:32.385Z,33.11
2018-06-08T12:03:02.200Z,33.57
2018-06-08T12:05:32.336Z,34.36
2018-06-08T12:08:02.568Z,34.80
2018-06-08T12:10:32.689Z,34.76
2018-06-08T12:13:02.664Z,35.60
2018-06-08T12:15:33.329Z,36.27
2018-06-08T12:18:02.216Z,36.05
2018-06-08T12:20:33.228Z,33.74
2018-06-08T12:23:03.376Z,32.86
2018-06-08T12:25:33.887Z,30.85
2018-06-08T12:28:03.793Z,30.39
2018-06-08T12:30:33.432Z,30.56
2018-06-08T12:33:02.404Z,29.04
2018-06-08T12:35:31.629Z,28.44
2018-06-08T12:38:00.805Z,27.26
2018-06-08T12:40:30.948Z,27.01
2018-06-08T12:43:00.019Z,26.55
2018-06-08T12:45:29.316Z,25.34
2018-06-08T12:47:59.564Z,25.10
2018-06-08T12:50:28.652Z,24.78
2018-06-08T12:52:58.744Z,24.58
2018-06-08T12:55:29.064Z,24.07
2018-06-08T12:57:58.614Z,24.00
2018-06-08T13:00:27.751Z,23.95
2018-06-08T13:02:57.018Z,23.64
2018-06-08T13:05:26.383Z,22.96
2018-06-08T13:07:55.556Z,22.80
2018-06-08T13:10:24.747Z,22.80
2018-06-08T13:12:54.280Z,22.58
2018-06-08T13:15:24.312Z,22.60
2018-06-08T13:17:53.568Z,22.52
2018-06-08T13:20:22.772Z,22.32
2018-06-08T13:22:52.188Z,22.54
2018-06-08T13:25:22.965Z,22.66
2018-06-08T13:27:53.072Z,22.89
2018-06-08T13:30:22.264Z,23.08
2018-06-08T13:32:51.470Z,23.31
2018-06-08T13:35:21.377Z,23.57
2018-06-08T13:37:50.548Z,23.73
2018-06-08T13:40:19.759Z,23.75
2018-06-08T13:42:48.940Z,23.76
2018-06-08T13:45:18.228Z,23.73
2018-06-08T13:47:47.484Z,23.76
2018-06-08T13:50:16.664Z,23.77
2018-06-08T13:52:45.848Z,23.75
2018-06-08T13:55:15.027Z,23.74
2018-06-08T13:57:45.256Z,23.92
2018-06-08T14:00:14.513Z,24.11
2018-06-08T14:02:43.792Z,24.38
2018-06-08T14:05:13.301Z,24.67
2018-06-08T14:07:43.172Z,24.93
2018-06-08T14:10:13.590Z,24.97
2018-06-08T14:12:42.710Z,25.11
2018-06-08T14:15:12.624Z,25.11
2018-06-08T14:17:41.849Z,24.91
2018-06-08T14:20:11.748Z,24.83
2018-06-08T14:22:40.904Z,24.78
2018-06-08T14:25:10.936Z,24.69
2018-06-08T14:27:40.221Z,24.56
2018-06-08T14:30:10.217Z,24.53
2018-06-08T14:32:39.360Z,24.54
2018-06-08T14:35:08.548Z,24.69
2018-06-08T14:37:38.260Z,24.84
2018-06-08T14:40:07.689Z,25.01
2018-06-08T14:42:36.856Z,25.06
2018-06-08T14:45:06.668Z,25.15
2018-06-08T14:47:35.878Z,25.14
2018-06-08T14:50:05.093Z,25.28
2018-06-08T14:52:34.612Z,25.39
2018-06-08T14:55:04.737Z,25.42
2018-06-08T14:57:33.900Z,25.36
2018-06-08T15:00:04.227Z,25.59
2018-06-08T15:02:34.465Z,25.73
2018-06-08T15:05:03.680Z,25.54
2018-06-08T15:07:32.820Z,25.07
2018-06-08T15:10:02.756Z,25.06
2018-06-08T15:12:31.957Z,25.21
2018-06-08T15:15:01.049Z,25.55
2018-06-08T15:17:30.276Z,25.86
2018-06-08T15:19:59.448Z,26.06
2018-06-08T15:22:28.644Z,26.25
2018-06-08T15:24:58.125Z,26.48
2018-06-08T15:27:27.352Z,26.73
2018-06-08T15:29:56.544Z,26.69
2018-06-08T15:32:26.548Z,26.85
2018-06-08T15:34:56.276Z,27.41
2018-06-08T15:37:25.445Z,27.77
2018-06-08T15:39:54.685Z,28.19
2018-06-08T15:42:23.852Z,28.33
2018-06-08T15:44:53.051Z,28.38
2018-06-08T15:47:23.158Z,28.02
2018-06-08T15:49:52.380Z,28.05
2018-06-08T15:52:21.664Z,27.98
2018-06-08T15:54:51.587Z,27.82
2018-06-08T15:57:20.802Z,27.73
2018-06-08T15:59:50.945Z,27.71
2018-06-08T16:02:20.920Z,27.63
2018-06-08T16:04:50.977Z,27.36
2018-06-08T16:07:20.132Z,27.44
2018-06-08T16:09:49.946Z,27.37
2018-06-08T16:12:19.144Z,27.40
2018-06-08T16:14:48.352Z,27.47
2018-06-08T16:17:17.672Z,27.15
2018-06-08T16:19:47.075Z,27.40
2018-06-08T16:22:16.234Z,27.70
2018-06-08T16:24:45.849Z,27.88
2018-06-08T16:27:15.117Z,28.10
2018-06-08T16:29:44.447Z,28.01
2018-06-08T16:32:14.568Z,28.05
2018-06-08T16:34:43.829Z,27.93
2018-06-08T16:37:12.952Z,27.96
2018-06-08T16:39:42.468Z,27.90
2018-06-08T16:42:11.708Z,27.86
2018-06-08T16:44:41.009Z,27.77
2018-06-08T16:47:10.160Z,27.67
2018-06-08T16:49:39.784Z,27.59
2018-06-08T16:52:09.021Z,27.36
2018-06-08T16:54:38.992Z,27.17
2018-06-08T16:57:08.201Z,27.07
2018-06-08T16:59:38.307Z,26.90
2018-06-08T17:02:08.221Z,26.92
2018-06-08T17:04:38.244Z,26.95
2018-06-08T17:07:07.838Z,27.00
2018-06-08T17:09:37.044Z,27.02
2018-06-08T17:12:07.202Z,27.05
2018-06-08T17:14:36.372Z,26.91
2018-06-08T17:17:05.469Z,26.91
2018-06-08T17:19:35.408Z,27.02
2018-06-08T17:22:04.600Z,27.06
2018-06-08T17:24:34.729Z,27.12
2018-06-08T17:27:03.875Z,27.11
2018-06-08T17:29:33.941Z,27.03
2018-06-08T17:32:03.317Z,26.92
2018-06-08T17:34:32.516Z,26.93
2018-06-08T17:37:02.049Z,26.92
2018-06-08T17:39:31.221Z,26.94
2018-06-08T17:42:00.440Z,26.90
2018-06-08T17:44:29.804Z,26.82
2018-06-08T17:46:59.045Z,26.77
2018-06-08T17:49:29.420Z,26.64
2018-06-08T17:51:58.671Z,26.58
2018-06-08T17:54:27.968Z,26.41
2018-06-08T17:56:57.164Z,26.35
2018-06-08T17:59:26.676Z,26.20
2018-06-08T18:01:55.828Z,26.07
2018-06-08T18:04:25.041Z,26.03
2018-06-08T18:06:55.148Z,26.01
2018-06-08T18:09:24.856Z,25.92
2018-06-08T18:11:54.071Z,25.88
2018-06-08T18:14:23.562Z,25.82
2018-06-08T18:16:52.756Z,25.63
2018-06-08T18:19:22.096Z,25.58
2018-06-08T18:21:51.664Z,25.54
2018-06-08T18:24:20.876Z,25.52
2018-06-08T18:26:49.996Z,25.47
2018-06-08T18:29:19.564Z,25.39
2018-06-08T18:31:49.008Z,25.44
2018-06-08T18:34:18.156Z,25.44
2018-06-08T18:36:47.708Z,25.28
2018-06-08T18:39:16.873Z,25.24
2018-06-08T18:41:46.096Z,25.07
2018-06-08T18:44:15.142Z,24.97
2018-06-08T18:46:44.360Z,24.97
2018-06-08T18:49:13.493Z,25.09
2018-06-08T18:51:42.896Z,25.15
2018-06-08T18:54:12.072Z,25.12
2018-06-08T18:56:41.392Z,25.10
2018-06-08T18:59:10.572Z,25.03
2018-06-08T19:01:41.128Z,25.05
2018-06-08T19:04:10.392Z,24.97
2018-06-08T19:06:39.592Z,24.95
2018-06-08T19:09:10.323Z,24.73
2018-06-08T19:11:39.552Z,24.67
2018-06-08T19:14:09.776Z,24.47
2018-06-08T19:16:38.972Z,24.36
2018-06-08T19:19:08.120Z,24.32
2018-06-08T19:21:37.532Z,24.34
2018-06-08T19:24:06.730Z,24.20
2018-06-08T19:26:35.940Z,23.98
2018-06-08T19:29:05.472Z,23.98
2018-06-08T19:31:34.620Z,23.86
2018-06-08T19:34:03.848Z,23.81
2018-06-08T19:36:32.968Z,23.80
2018-06-08T19:39:02.340Z,23.72
2018-06-08T19:41:32.158Z,23.67
2018-06-08T19:44:01.657Z,23.66
2018-06-08T19:46:31.701Z,23.51
2018-06-08T19:49:00.952Z,23.46
2018-06-08T19:51:30.581Z,23.38
2018-06-08T19:53:59.805Z,23.43
2018-06-08T19:56:29.004Z,23.28
2018-06-08T19:58:58.307Z,23.32
2018-06-08T20:01:27.451Z,23.24
2018-06-08T20:03:56.700Z,23.08
2018-06-08T20:06:25.896Z,22.96
2018-06-08T20:08:55.301Z,22.87
2018-06-08T20:11:25.217Z,22.88
2018-06-08T20:13:54.385Z,22.77
2018-06-08T20:16:23.505Z,22.72
2018-06-08T20:18:52.768Z,22.69
2018-06-08T20:21:21.980Z,22.68
2018-06-08T20:23:51.324Z,22.55
2018-06-08T20:26:20.428Z,22.43
2018-06-08T20:28:49.704Z,22.41
2018-06-08T20:31:19.412Z,22.28
2018-06-08T20:33:48.684Z,22.17
2018-06-08T20:36:18.089Z,22.14
2018-06-08T20:38:47.480Z,22.08
2018-06-08T20:41:16.616Z,22.07
2018-06-08T20:43:45.775Z,22.06
2018-06-08T20:46:15.009Z,22.04
2018-06-08T20:48:44.492Z,22.04
2018-06-08T20:51:13.654Z,22.04
2018-06-08T20:53:43.176Z,21.98
2018-06-08T20:56:12.904Z,21.93
2018-06-08T20:58:43.094Z,21.95
2018-06-08T21:01:12.501Z,21.95
2018-06-08T21:03:41.725Z,21.95
2018-06-08T21:06:10.944Z,21.93
2018-06-08T21:08:40.152Z,21.91
2018-06-08T21:11:09.304Z,21.87
2018-06-08T21:13:38.546Z,21.84
2018-06-08T21:16:07.996Z,21.80
2018-06-08T21:18:37.195Z,21.72
2018-06-08T21:21:06.392Z,21.69
2018-06-08T21:23:35.536Z,21.65
2018-06-08T21:26:04.748Z,21.62
2018-06-08T21:28:34.396Z,21.59
2018-06-08T21:31:03.512Z,21.60
2018-06-08T21:33:32.736Z,21.55
2018-06-08T21:36:01.908Z,21.55
2018-06-08T21:38:31.186Z,21.45
2018-06-08T21:41:00.896Z,21.43
2018-06-08T21:43:30.112Z,21.39
2018-06-08T21:45:59.648Z,21.37
2018-06-08T21:48:28.864Z,21.32
2018-06-08T21:50:58.469Z,21.32
2018-06-08T21:53:27.920Z,21.28
2018-06-08T21:55:57.053Z,21.27
2018-06-08T21:58:26.168Z,21.24
2018-06-08T22:00:55.820Z,21.24
2018-06-08T22:03:25.059Z,21.22
2018-06-08T22:05:54.253Z,21.22
2018-06-08T22:08:23.763Z,21.15
2018-06-08T22:10:52.956Z,21.09
2018-06-08T22:13:22.153Z,21.09
2018-06-08T22:15:51.432Z,21.02
2018-06-08T22:18:21.992Z,20.99
2018-06-08T22:20:51.644Z,21.01
2018-06-08T22:23:20.789Z,21.00
2018-06-08T22:25:50.424Z,20.99
2018-06-08T22:28:19.673Z,20.86
2018-06-08T22:30:48.871Z,20.83
2018-06-08T22:33:18.400Z,20.78
2018-06-08T22:35:47.588Z,20.76
2018-06-08T22:38:16.769Z,20.62
2018-06-08T22:40:46.260Z,20.60
2018-06-08T22:43:15.338Z,20.56
2018-06-08T22:45:44.673Z,20.55
2018-06-08T22:48:14.203Z,20.47
2018-06-08T22:50:43.311Z,20.46
2018-06-08T22:53:12.456Z,20.45
2018-06-08T22:55:41.993Z,20.34
2018-06-08T22:58:11.264Z,20.35
2018-06-08T23:00:40.880Z,20.34
2018-06-08T23:03:11.096Z,20.25
2018-06-08T23:05:40.196Z,20.16
2018-06-08T23:08:09.421Z,20.13
2018-06-08T23:10:39.235Z,20.12
2018-06-08T23:13:08.402Z,20.18
2018-06-08T23:15:37.591Z,20.12
2018-06-08T23:18:06.832Z,20.07
2018-06-08T23:20:36.077Z,20.07
2018-06-08T23:23:05.581Z,20.08
2018-06-08T23:25:34.996Z,20.06
2018-06-08T23:28:04.604Z,20.07
2018-06-08T23:30:33.841Z,20.11
2018-06-08T23:33:03.549Z,20.08
2018-06-08T23:35:32.824Z,20.06
2018-06-08T23:38:02.010Z,20.00
2018-06-08T23:40:31.757Z,20.00
2018-06-08T23:43:00.916Z,19.92
2018-06-08T23:45:30.129Z,19.89
2018-06-08T23:47:59.728Z,19.84
2018-06-08T23:50:28.932Z,19.86
2018-06-08T23:52:58.157Z,19.91
2018-06-08T23:55:27.304Z,19.91
2018-06-08T23:57:56.412Z,19.92
